createdAt,value
2017-12-27T00:00:55.908Z,11.56
2017-12-27T00:01:54.227Z,9.60
2017-12-27T00:02:54.231Z,9.01
2017-12-27T00:03:54.239Z,7.68
2017-12-27T00:04:55.900Z,7.40
2017-12-27T00:05:54.191Z,7.82
2017-12-27T00:06:54.219Z,8.98
2017-12-27T00:07:54.177Z,6.93
2017-12-27T00:08:54.181Z,6.02
2017-12-27T00:09:54.163Z,7.14
2017-12-27T00:10:54.163Z,10.56
2017-12-27T00:11:55.912Z,6.25
2017-12-27T00:12:54.158Z,6.49
2017-12-27T00:13:54.156Z,9.39
2017-12-27T00:14:54.134Z,8.62
2017-12-27T00:15:55.931Z,10.22
2017-12-27T00:16:55.934Z,7.67
2017-12-27T00:17:54.118Z,8.79
2017-12-27T00:18:55.962Z,9.64
2017-12-27T00:19:54.080Z,11.19
2017-12-27T00:20:58.005Z,8.04
2017-12-27T00:21:54.091Z,5.66
2017-12-27T00:22:55.906Z,7.80
2017-12-27T00:23:55.929Z,9.13
2017-12-27T00:24:55.916Z,8.68
2017-12-27T00:25:54.037Z,7.13
2017-12-27T00:26:54.029Z,7.10
2017-12-27T00:27:54.051Z,7.41
2017-12-27T00:28:54.082Z,6.68
2017-12-27T00:29:55.931Z,9.42
2017-12-27T00:30:53.983Z,9.38
2017-12-27T00:31:54.007Z,6.96
2017-12-27T00:32:53.996Z,10.14
2017-12-27T00:33:53.967Z,6.37
2017-12-27T00:34:54.004Z,10.59
2017-12-27T00:35:53.961Z,8.22
2017-12-27T00:36:53.952Z,7.94
2017-12-27T00:37:53.939Z,5.66
2017-12-27T00:38:53.918Z,8.62
2017-12-27T00:39:53.919Z,6.73
2017-12-27T00:40:53.905Z,6.13
2017-12-27T00:41:53.925Z,7.16
2017-12-27T00:42:53.930Z,8.52
2017-12-27T00:43:55.432Z,6.90
2017-12-27T00:44:53.876Z,6.06
2017-12-27T00:45:53.910Z,6.18
2017-12-27T00:46:53.856Z,5.93
2017-12-27T00:47:55.413Z,6.53
2017-12-27T00:48:53.878Z,6.35
2017-12-27T00:49:55.442Z,5.57
2017-12-27T00:50:53.847Z,6.90
2017-12-27T00:51:53.855Z,6.35
2017-12-27T00:52:55.457Z,6.46
2017-12-27T00:53:53.825Z,6.38
2017-12-27T00:54:53.794Z,9.98
2017-12-27T00:55:53.822Z,8.78
2017-12-27T00:56:54.785Z,6.58
2017-12-27T00:58:01.428Z,5.56
2017-12-27T00:58:53.764Z,6.46
2017-12-27T00:59:53.756Z,4.30
2017-12-27T01:00:53.754Z,5.07
2017-12-27T01:01:05.748Z,0.21
2017-12-27T01:02:53.755Z,5.84
2017-12-27T01:03:53.710Z,9.10
2017-12-27T01:04:53.740Z,8.56
2017-12-27T01:05:53.734Z,7.55
2017-12-27T01:06:53.698Z,7.74
2017-12-27T01:07:53.699Z,7.00
2017-12-27T01:08:53.696Z,7.52
2017-12-27T01:09:53.698Z,8.92
2017-12-27T01:10:53.682Z,9.45
2017-12-27T01:11:53.696Z,8.30
2017-12-27T01:12:53.654Z,7.24
2017-12-27T01:13:53.664Z,6.60
2017-12-27T01:14:55.515Z,5.16
2017-12-27T01:15:57.448Z,6.20
2017-12-27T01:16:55.457Z,6.44
2017-12-27T01:17:55.469Z,7.09
2017-12-27T01:18:57.444Z,8.82
2017-12-27T01:19:55.444Z,6.09
2017-12-27T01:20:53.581Z,5.54
2017-12-27T01:21:53.609Z,5.44
2017-12-27T01:22:55.450Z,6.43
2017-12-27T01:23:53.570Z,7.94
2017-12-27T01:24:53.554Z,8.76
2017-12-27T01:25:53.569Z,7.83
2017-12-27T01:26:53.534Z,5.96
2017-12-27T01:27:54.555Z,7.20
2017-12-27T01:28:53.531Z,7.45
2017-12-27T01:29:53.538Z,8.10
2017-12-27T01:30:53.512Z,6.49
2017-12-27T01:31:55.453Z,4.90
2017-12-27T01:32:53.548Z,7.84
2017-12-27T01:33:55.447Z,7.32
2017-12-27T01:34:53.488Z,9.84
2017-12-27T01:35:53.493Z,5.24
2017-12-27T01:36:53.471Z,6.40
2017-12-27T01:37:53.465Z,8.67
2017-12-27T01:38:54.956Z,6.67
2017-12-27T01:39:56.975Z,7.11
2017-12-27T01:40:53.417Z,10.43
2017-12-27T01:41:53.432Z,6.56
2017-12-27T01:42:53.448Z,8.23
2017-12-27T01:43:53.411Z,6.89
2017-12-27T01:44:53.405Z,6.78
2017-12-27T01:45:53.398Z,5.75
2017-12-27T01:46:53.403Z,7.43
2017-12-27T01:47:53.359Z,7.35
2017-12-27T01:48:53.368Z,6.36
2017-12-27T01:49:53.383Z,5.32
2017-12-27T01:50:54.966Z,6.44
2017-12-27T01:51:53.346Z,8.17
2017-12-27T01:52:53.341Z,6.12
2017-12-27T01:53:53.316Z,9.11
2017-12-27T01:54:53.302Z,10.02
2017-12-27T01:55:53.308Z,9.34
2017-12-27T01:56:53.290Z,8.21
2017-12-27T01:57:53.300Z,7.29
2017-12-27T01:58:53.279Z,7.55
2017-12-27T01:59:53.284Z,5.85
2017-12-27T02:00:54.981Z,6.45
2017-12-27T02:01:54.968Z,8.13
2017-12-27T02:02:53.255Z,7.98
2017-12-27T02:03:53.223Z,7.40
2017-12-27T02:04:53.249Z,8.17
2017-12-27T02:05:54.947Z,7.26
2017-12-27T02:06:53.209Z,4.25
2017-12-27T02:07:53.198Z,5.82
2017-12-27T02:08:54.964Z,8.32
2017-12-27T02:09:53.181Z,7.44
2017-12-27T02:10:53.183Z,6.59
2017-12-27T02:11:53.183Z,6.08
2017-12-27T02:12:53.181Z,6.64
2017-12-27T02:13:53.184Z,7.93
2017-12-27T02:14:53.163Z,8.19
2017-12-27T02:15:53.150Z,5.01
2017-12-27T02:16:53.142Z,4.50
2017-12-27T02:17:53.141Z,7.81
2017-12-27T02:18:54.967Z,6.62
2017-12-27T02:19:53.104Z,5.31
2017-12-27T02:20:53.100Z,7.48
2017-12-27T02:21:53.089Z,6.10
2017-12-27T02:22:53.078Z,5.32
2017-12-27T02:23:53.093Z,7.10
2017-12-27T02:24:53.070Z,6.95
2017-12-27T02:25:53.072Z,5.05
2017-12-27T02:26:53.042Z,6.52
2017-12-27T02:27:53.053Z,6.60
2017-12-27T02:28:53.043Z,5.77
2017-12-27T02:29:53.026Z,5.48
2017-12-27T02:30:53.021Z,5.16
2017-12-27T02:31:54.990Z,3.95
2017-12-27T02:32:53.013Z,5.55
2017-12-27T02:33:54.961Z,5.29
2017-12-27T02:34:52.990Z,5.00
2017-12-27T02:35:52.988Z,5.64
2017-12-27T02:36:52.988Z,8.52
2017-12-27T02:37:52.953Z,4.18
2017-12-27T02:38:52.984Z,4.57
2017-12-27T02:39:52.957Z,7.16
2017-12-27T02:40:52.960Z,5.96
2017-12-27T02:41:52.935Z,5.20
2017-12-27T02:42:52.907Z,3.86
2017-12-27T02:43:52.908Z,5.06
2017-12-27T02:44:52.915Z,4.06
2017-12-27T02:45:52.903Z,3.89
2017-12-27T02:46:54.502Z,4.30
2017-12-27T02:47:52.872Z,4.32
2017-12-27T02:48:52.908Z,3.16
2017-12-27T02:49:54.455Z,4.94
2017-12-27T02:50:52.853Z,5.08
2017-12-27T02:51:52.845Z,5.18
2017-12-27T02:52:54.454Z,4.89
2017-12-27T02:53:52.836Z,4.63
2017-12-27T02:54:54.493Z,4.70
2017-12-27T02:55:54.474Z,4.44
2017-12-27T02:56:52.819Z,3.98
2017-12-27T02:57:52.817Z,5.84
2017-12-27T02:58:52.816Z,7.18
2017-12-27T02:59:54.486Z,8.16
2017-12-27T03:00:52.787Z,8.17
2017-12-27T03:01:52.770Z,9.42
2017-12-27T03:02:52.749Z,9.25
2017-12-27T03:03:52.773Z,9.58
2017-12-27T03:04:52.732Z,5.34
2017-12-27T03:05:52.744Z,5.48
2017-12-27T03:06:52.721Z,4.88
2017-12-27T03:07:52.703Z,6.10
2017-12-27T03:08:52.721Z,6.68
2017-12-27T03:09:52.698Z,5.48
2017-12-27T03:10:52.739Z,6.05
2017-12-27T03:11:52.705Z,8.86
2017-12-27T03:12:52.689Z,6.88
2017-12-27T03:13:52.668Z,7.07
2017-12-27T03:14:52.690Z,5.84
2017-12-27T03:15:54.493Z,11.49
2017-12-27T03:16:52.632Z,15.26
2017-12-27T03:17:52.629Z,10.56
2017-12-27T03:18:52.616Z,8.10
2017-12-27T03:19:52.644Z,9.63
2017-12-27T03:20:53.602Z,13.72
2017-12-27T03:21:52.606Z,15.53
2017-12-27T03:22:54.480Z,18.02
2017-12-27T03:23:52.582Z,13.23
2017-12-27T03:24:52.573Z,11.34
2017-12-27T03:25:52.579Z,9.12
2017-12-27T03:26:52.553Z,10.46
2017-12-27T03:27:52.549Z,7.36
2017-12-27T03:28:54.498Z,8.14
2017-12-27T03:29:52.539Z,4.98
2017-12-27T03:30:52.524Z,6.37
2017-12-27T03:31:54.502Z,5.40
2017-12-27T03:32:52.515Z,8.51
2017-12-27T03:33:52.500Z,9.21
2017-12-27T03:34:52.512Z,12.62
2017-12-27T03:35:52.468Z,7.23
2017-12-27T03:36:54.009Z,5.86
2017-12-27T03:37:52.496Z,8.97
2017-12-27T03:38:52.465Z,8.22
2017-12-27T03:39:52.472Z,8.54
2017-12-27T03:40:52.445Z,8.32
2017-12-27T03:41:52.445Z,7.50
2017-12-27T03:42:53.977Z,5.64
2017-12-27T03:43:52.421Z,5.78
2017-12-27T03:44:52.417Z,6.17
2017-12-27T03:45:52.406Z,8.07
2017-12-27T03:46:53.979Z,7.27
2017-12-27T03:47:52.374Z,7.06
2017-12-27T03:48:52.371Z,5.86
2017-12-27T03:49:52.361Z,4.78
2017-12-27T03:50:52.364Z,5.69
2017-12-27T03:51:52.360Z,5.91
2017-12-27T03:52:52.334Z,4.25
2017-12-27T03:53:52.353Z,5.41
2017-12-27T03:54:52.363Z,6.98
2017-12-27T03:55:52.332Z,7.02
2017-12-27T03:56:52.302Z,7.45
2017-12-27T03:57:55.988Z,7.66
2017-12-27T03:58:52.306Z,4.91
2017-12-27T03:59:52.311Z,4.38
2017-12-27T04:00:52.315Z,3.66
2017-12-27T04:01:53.978Z,4.62
2017-12-27T04:02:52.304Z,5.55
2017-12-27T04:03:52.261Z,5.13
2017-12-27T04:04:52.251Z,4.14
2017-12-27T04:05:52.232Z,4.03
2017-12-27T04:06:52.247Z,5.20
2017-12-27T04:07:52.249Z,5.09
2017-12-27T04:08:52.249Z,10.37
2017-12-27T04:09:56.006Z,5.24
2017-12-27T04:10:52.211Z,5.73
2017-12-27T04:11:52.184Z,8.04
2017-12-27T04:12:52.179Z,4.57
2017-12-27T04:13:52.170Z,3.60
2017-12-27T04:14:52.186Z,4.06
2017-12-27T04:15:53.989Z,4.60
2017-12-27T04:16:52.140Z,3.83
2017-12-27T04:17:52.139Z,6.94
2017-12-27T04:18:52.147Z,5.23
2017-12-27T04:19:53.998Z,4.53
2017-12-27T04:20:52.134Z,4.51
2017-12-27T04:21:52.116Z,4.29
2017-12-27T04:22:52.126Z,6.48
2017-12-27T04:23:53.996Z,5.98
2017-12-27T04:24:52.107Z,6.62
2017-12-27T04:25:52.075Z,7.39
2017-12-27T04:26:52.055Z,4.80
2017-12-27T04:27:52.067Z,5.67
2017-12-27T04:28:52.056Z,6.38
2017-12-27T04:29:52.071Z,6.03
2017-12-27T04:30:52.037Z,7.01
2017-12-27T04:31:52.068Z,4.42
2017-12-27T04:32:52.031Z,4.29
2017-12-27T04:33:52.040Z,4.05
2017-12-27T04:34:52.034Z,3.36
2017-12-27T04:35:52.004Z,3.17
2017-12-27T04:36:52.014Z,4.44
2017-12-27T04:37:52.033Z,4.04
2017-12-27T04:38:53.564Z,4.22
2017-12-27T04:39:53.504Z,4.17
2017-12-27T04:40:51.967Z,4.60
2017-12-27T04:41:51.943Z,5.05
2017-12-27T04:42:51.942Z,3.82
2017-12-27T04:43:51.958Z,3.36
2017-12-27T04:44:51.956Z,5.30
2017-12-27T04:45:51.930Z,3.71
2017-12-27T04:46:51.917Z,3.17
2017-12-27T04:47:53.544Z,4.03
2017-12-27T04:48:51.890Z,6.10
2017-12-27T04:49:51.892Z,5.80
2017-12-27T04:50:51.891Z,4.17
2017-12-27T04:51:55.524Z,5.36
2017-12-27T04:52:51.862Z,6.46
2017-12-27T04:53:51.854Z,4.08
2017-12-27T04:54:51.863Z,3.55
2017-12-27T04:55:59.494Z,3.82
2017-12-27T04:56:51.835Z,5.41
2017-12-27T04:57:53.560Z,4.53
2017-12-27T04:58:51.801Z,3.35
2017-12-27T04:59:51.820Z,3.57
2017-12-27T05:00:51.804Z,3.44
2017-12-27T05:01:51.796Z,4.47
2017-12-27T05:02:55.520Z,3.91
2017-12-27T05:03:51.768Z,3.24
2017-12-27T05:04:53.538Z,3.54
2017-12-27T05:05:53.511Z,3.01
2017-12-27T05:06:51.742Z,3.89
2017-12-27T05:07:51.735Z,2.84
2017-12-27T05:08:51.722Z,3.68
2017-12-27T05:09:51.719Z,3.86
2017-12-27T05:10:53.524Z,4.28
2017-12-27T05:11:53.526Z,4.14
2017-12-27T05:12:51.693Z,3.19
2017-12-27T05:13:51.683Z,4.19
2017-12-27T05:14:51.684Z,5.52
2017-12-27T05:15:51.676Z,4.92
2017-12-27T05:16:51.675Z,4.60
2017-12-27T05:17:51.648Z,3.03
2017-12-27T05:18:51.652Z,3.61
2017-12-27T05:19:51.643Z,2.34
2017-12-27T05:20:51.663Z,3.30
2017-12-27T05:21:51.616Z,3.20
2017-12-27T05:22:53.514Z,2.58
2017-12-27T05:23:51.615Z,2.77
2017-12-27T05:24:51.598Z,3.45
2017-12-27T05:25:53.509Z,4.38
2017-12-27T05:26:51.574Z,2.92
2017-12-27T05:27:51.635Z,4.02
2017-12-27T05:28:51.575Z,4.58
2017-12-27T05:29:51.576Z,3.00
2017-12-27T05:30:53.531Z,2.86
2017-12-27T05:31:51.541Z,2.88
2017-12-27T05:32:51.549Z,5.26
2017-12-27T05:33:51.549Z,4.33
2017-12-27T05:34:51.532Z,2.64
2017-12-27T05:35:51.528Z,4.58
2017-12-27T05:36:51.517Z,2.70
2017-12-27T05:37:51.506Z,5.18
2017-12-27T05:38:51.525Z,4.44
2017-12-27T05:39:53.042Z,2.82
2017-12-27T05:40:51.478Z,3.09
2017-12-27T05:41:51.458Z,5.14
2017-12-27T05:42:51.485Z,2.76
2017-12-27T05:43:51.446Z,2.42
2017-12-27T05:44:51.457Z,3.72
2017-12-27T05:45:51.441Z,4.74
2017-12-27T05:46:51.418Z,4.74
2017-12-27T05:47:51.425Z,5.59
2017-12-27T05:48:51.418Z,3.54
2017-12-27T05:49:51.406Z,4.54
2017-12-27T05:50:51.399Z,3.45
2017-12-27T05:51:51.479Z,3.54
2017-12-27T05:52:51.408Z,3.63
2017-12-27T05:53:51.375Z,4.01
2017-12-27T05:54:52.359Z,3.28
2017-12-27T05:55:51.365Z,3.53
2017-12-27T05:56:53.072Z,3.13
2017-12-27T05:57:51.370Z,3.98
2017-12-27T05:58:53.029Z,3.37
2017-12-27T05:59:53.016Z,3.87
2017-12-27T06:00:53.098Z,4.91
2017-12-27T06:01:51.314Z,6.24
2017-12-27T06:02:51.293Z,4.24
2017-12-27T06:03:51.300Z,5.24
2017-12-27T06:04:53.063Z,4.36
2017-12-27T06:05:51.318Z,3.81
2017-12-27T06:06:51.252Z,4.66
2017-12-27T06:07:51.264Z,4.20
2017-12-27T06:08:51.292Z,4.71
2017-12-27T06:09:53.052Z,5.37
2017-12-27T06:10:53.065Z,4.07
2017-12-27T06:11:51.270Z,4.30
2017-12-27T06:12:53.052Z,3.68
2017-12-27T06:13:53.070Z,3.31
2017-12-27T06:14:53.056Z,2.88
2017-12-27T06:15:51.214Z,2.98
2017-12-27T06:16:51.213Z,3.12
2017-12-27T06:17:51.197Z,2.68
2017-12-27T06:18:51.215Z,3.22
2017-12-27T06:19:51.226Z,4.38
2017-12-27T06:20:51.156Z,3.95
2017-12-27T06:21:51.148Z,3.22
2017-12-27T06:22:51.133Z,3.65
2017-12-27T06:23:51.139Z,4.74
2017-12-27T06:24:51.136Z,3.52
2017-12-27T06:25:55.060Z,3.46
2017-12-27T06:26:51.112Z,2.62
2017-12-27T06:27:51.091Z,2.46
2017-12-27T06:28:51.101Z,3.24
2017-12-27T06:29:55.064Z,3.19
2017-12-27T06:30:51.099Z,3.63
2017-12-27T06:31:51.073Z,3.96
2017-12-27T06:32:51.068Z,4.02
2017-12-27T06:33:52.558Z,2.77
2017-12-27T06:34:51.063Z,2.81
2017-12-27T06:35:51.046Z,3.30
2017-12-27T06:36:51.042Z,3.38
2017-12-27T06:37:51.027Z,2.30
2017-12-27T06:38:51.002Z,2.35
2017-12-27T06:39:51.015Z,3.05
2017-12-27T06:40:50.994Z,4.04
2017-12-27T06:41:50.994Z,3.40
2017-12-27T06:42:50.993Z,4.02
2017-12-27T06:43:51.022Z,2.55
2017-12-27T06:44:50.980Z,4.52
2017-12-27T06:45:52.540Z,2.96
2017-12-27T06:46:50.967Z,4.32
2017-12-27T06:47:52.552Z,2.85
2017-12-27T06:48:52.604Z,4.18
2017-12-27T06:49:50.951Z,4.01
2017-12-27T06:50:50.936Z,3.23
2017-12-27T06:51:50.920Z,2.94
2017-12-27T06:52:52.560Z,3.14
2017-12-27T06:53:02.912Z,0.20
2017-12-27T06:54:50.914Z,4.06
2017-12-27T06:55:50.916Z,5.35
2017-12-27T06:56:50.872Z,3.30
2017-12-27T06:57:50.883Z,3.52
2017-12-27T06:58:54.559Z,2.46
2017-12-27T06:59:50.861Z,2.93
2017-12-27T07:00:52.616Z,4.36
2017-12-27T07:01:52.538Z,2.92
2017-12-27T07:02:50.855Z,3.34
2017-12-27T07:03:50.825Z,3.48
2017-12-27T07:04:54.587Z,4.42
2017-12-27T07:05:50.802Z,4.02
2017-12-27T07:06:50.805Z,3.85
2017-12-27T07:07:50.762Z,3.48
2017-12-27T07:08:50.795Z,3.13
2017-12-27T07:09:50.759Z,3.94
2017-12-27T07:10:50.748Z,3.60
2017-12-27T07:11:52.609Z,5.17
2017-12-27T07:12:52.580Z,2.66
2017-12-27T07:13:50.744Z,3.07
2017-12-27T07:14:50.759Z,4.11
2017-12-27T07:15:50.706Z,3.97
2017-12-27T07:16:50.694Z,3.86
2017-12-27T07:17:50.701Z,4.87
2017-12-27T07:18:50.684Z,3.65
2017-12-27T07:19:50.680Z,3.82
2017-12-27T07:20:52.580Z,4.38
2017-12-27T07:21:54.573Z,3.59
2017-12-27T07:22:50.651Z,3.94
2017-12-27T07:23:50.666Z,3.86
2017-12-27T07:24:50.638Z,4.80
2017-12-27T07:25:52.572Z,4.48
2017-12-27T07:26:50.608Z,4.62
2017-12-27T07:27:50.625Z,2.96
2017-12-27T07:28:52.584Z,4.94
2017-12-27T07:29:50.590Z,4.92
2017-12-27T07:30:50.573Z,4.25
2017-12-27T07:31:52.086Z,3.94
2017-12-27T07:32:50.547Z,5.41
2017-12-27T07:33:50.558Z,5.48
2017-12-27T07:34:50.563Z,3.93
2017-12-27T07:35:50.564Z,3.47
2017-12-27T07:36:50.529Z,3.95
2017-12-27T07:37:50.517Z,3.87
2017-12-27T07:38:50.519Z,4.09
2017-12-27T07:39:50.518Z,3.85
2017-12-27T07:40:50.529Z,3.65
2017-12-27T07:41:50.488Z,4.43
2017-12-27T07:42:50.466Z,4.45
2017-12-27T07:43:52.109Z,4.63
2017-12-27T07:44:50.464Z,3.87
2017-12-27T07:45:50.459Z,3.15
2017-12-27T07:46:50.476Z,3.29
2017-12-27T07:47:52.131Z,3.43
2017-12-27T07:48:50.425Z,3.62
2017-12-27T07:49:50.427Z,4.63
2017-12-27T07:50:50.417Z,3.88
2017-12-27T07:51:50.419Z,5.06
2017-12-27T07:52:50.396Z,4.64
2017-12-27T07:53:52.071Z,4.42
2017-12-27T07:54:52.107Z,5.91
2017-12-27T07:55:50.384Z,5.64
2017-12-27T07:56:50.368Z,4.63
2017-12-27T07:57:50.335Z,5.72
2017-12-27T07:58:50.352Z,5.83
2017-12-27T07:59:50.323Z,5.31
2017-12-27T08:00:52.086Z,4.62
2017-12-27T08:01:50.310Z,5.70
2017-12-27T08:02:52.069Z,6.19
2017-12-27T08:03:50.284Z,3.87
2017-12-27T08:04:50.293Z,5.00
2017-12-27T08:05:50.293Z,4.73
2017-12-27T08:06:54.085Z,5.12
2017-12-27T08:07:50.251Z,5.03
2017-12-27T08:08:50.270Z,5.01
2017-12-27T08:09:50.255Z,5.15
2017-12-27T08:10:52.060Z,6.09
2017-12-27T08:11:50.237Z,6.20
2017-12-27T08:12:50.230Z,4.66
2017-12-27T08:13:50.226Z,4.20
2017-12-27T08:14:52.095Z,4.52
2017-12-27T08:15:50.218Z,6.29
2017-12-27T08:16:50.206Z,5.63
2017-12-27T08:17:50.174Z,6.08
2017-12-27T08:18:50.160Z,6.23
2017-12-27T08:19:50.183Z,6.07
2017-12-27T08:20:52.077Z,9.99
2017-12-27T08:21:50.145Z,7.80
2017-12-27T08:22:52.073Z,5.96
2017-12-27T08:23:50.129Z,5.38
2017-12-27T08:24:50.147Z,4.89
2017-12-27T08:25:50.125Z,12.20
2017-12-27T08:26:50.088Z,10.89
2017-12-27T08:27:50.106Z,6.40
2017-12-27T08:28:51.602Z,9.44
2017-12-27T08:29:50.079Z,11.20
2017-12-27T08:30:50.064Z,7.07
2017-12-27T08:31:51.577Z,6.32
2017-12-27T08:32:50.053Z,5.74
2017-12-27T08:33:50.056Z,7.30
2017-12-27T08:34:51.603Z,8.99
2017-12-27T08:35:51.601Z,9.62
2017-12-27T08:36:50.024Z,4.88
2017-12-27T08:37:50.034Z,6.16
2017-12-27T08:38:50.004Z,6.26
2017-12-27T08:39:50.012Z,5.66
2017-12-27T08:40:50.004Z,6.91
2017-12-27T08:41:49.976Z,9.22
2017-12-27T08:42:49.968Z,9.82
2017-12-27T08:43:49.971Z,8.37
2017-12-27T08:44:49.943Z,6.15
2017-12-27T08:45:49.959Z,9.40
2017-12-27T08:46:50.927Z,7.94
2017-12-27T08:47:49.948Z,12.11
2017-12-27T08:48:51.589Z,5.16
2017-12-27T08:49:51.585Z,5.76
2017-12-27T08:50:53.595Z,5.91
2017-12-27T08:51:51.630Z,5.38
2017-12-27T08:52:49.882Z,5.43
2017-12-27T08:53:49.884Z,6.99
2017-12-27T08:54:51.590Z,7.92
2017-12-27T08:55:49.862Z,5.59
2017-12-27T08:56:49.882Z,4.79
2017-12-27T08:57:49.856Z,7.66
2017-12-27T08:58:49.861Z,8.08
2017-12-27T08:59:49.860Z,5.71
2017-12-27T09:00:49.861Z,8.42
2017-12-27T09:01:49.832Z,6.58
2017-12-27T09:02:49.803Z,7.57
2017-12-27T09:03:51.584Z,4.92
2017-12-27T09:04:51.585Z,4.23
2017-12-27T09:05:49.786Z,4.49
2017-12-27T09:06:49.811Z,4.98
2017-12-27T09:07:53.613Z,7.17
2017-12-27T09:08:53.597Z,5.37
2017-12-27T09:09:49.755Z,4.20
2017-12-27T09:10:49.746Z,2.84
2017-12-27T09:11:51.608Z,4.78
2017-12-27T09:12:49.742Z,6.80
2017-12-27T09:13:49.732Z,5.00
2017-12-27T09:14:49.725Z,4.67
2017-12-27T09:15:51.605Z,3.46
2017-12-27T09:16:49.690Z,3.28
2017-12-27T09:17:49.683Z,6.70
2017-12-27T09:18:49.684Z,5.50
2017-12-27T09:19:49.682Z,5.08
2017-12-27T09:20:49.681Z,4.86
2017-12-27T09:21:49.669Z,6.83
2017-12-27T09:22:49.652Z,5.15
2017-12-27T09:23:49.648Z,4.77
2017-12-27T09:24:49.655Z,3.03
2017-12-27T09:25:49.644Z,3.27
2017-12-27T09:26:49.630Z,3.40
2017-12-27T09:27:49.609Z,4.00
2017-12-27T09:28:49.590Z,3.01
2017-12-27T09:29:49.603Z,3.27
2017-12-27T09:30:49.585Z,3.93
2017-12-27T09:31:49.595Z,3.73
2017-12-27T09:32:49.562Z,3.18
2017-12-27T09:33:49.565Z,6.26
2017-12-27T09:34:49.549Z,4.60
2017-12-27T09:35:49.555Z,3.01
2017-12-27T09:36:49.558Z,3.56
2017-12-27T09:37:49.532Z,3.37
2017-12-27T09:38:49.521Z,3.61
2017-12-27T09:39:49.520Z,3.29
2017-12-27T09:40:49.523Z,2.50
2017-12-27T09:41:49.499Z,2.70
2017-12-27T09:42:49.480Z,2.36
2017-12-27T09:43:49.488Z,3.04
2017-12-27T09:44:49.490Z,3.54
2017-12-27T09:45:49.479Z,4.40
2017-12-27T09:46:49.459Z,2.88
2017-12-27T09:47:49.478Z,3.83
2017-12-27T09:48:49.462Z,3.00
2017-12-27T09:49:49.445Z,3.33
2017-12-27T09:50:49.458Z,3.41
2017-12-27T09:51:49.448Z,2.50
2017-12-27T09:52:49.429Z,2.12
2017-12-27T09:53:49.419Z,2.27
2017-12-27T09:54:49.396Z,2.00
2017-12-27T09:55:49.389Z,2.04
2017-12-27T09:56:49.399Z,2.51
2017-12-27T09:58:49.396Z,2.67
2017-12-27T09:59:51.106Z,3.20
2017-12-27T10:00:49.371Z,3.24
2017-12-27T10:01:49.346Z,2.38
2017-12-27T10:02:49.371Z,2.45
2017-12-27T10:03:49.332Z,2.56
2017-12-27T10:04:49.334Z,2.88
2017-12-27T10:05:49.339Z,2.75
2017-12-27T10:06:49.332Z,2.86
2017-12-27T10:07:49.367Z,2.57
2017-12-27T10:08:49.304Z,2.28
2017-12-27T10:09:49.282Z,2.31
2017-12-27T10:10:49.276Z,2.18
2017-12-27T10:11:49.269Z,2.19
2017-12-27T10:12:49.262Z,1.87
2017-12-27T10:13:49.260Z,3.86
2017-12-27T10:14:49.248Z,4.08
2017-12-27T10:15:49.241Z,3.58
2017-12-27T10:16:49.227Z,3.99
2017-12-27T10:17:49.222Z,2.73
2017-12-27T10:18:49.250Z,3.26
2017-12-27T10:19:49.235Z,2.87
2017-12-27T10:20:49.227Z,2.51
2017-12-27T10:21:49.201Z,2.17
2017-12-27T10:22:49.189Z,2.10
2017-12-27T10:23:49.196Z,2.90
2017-12-27T10:24:51.125Z,2.41
2017-12-27T10:25:49.170Z,2.49
2017-12-27T10:26:49.185Z,2.83
2017-12-27T10:27:51.121Z,2.06
2017-12-27T10:31:19.500Z,2.39
2017-12-27T10:32:13.468Z,2.31
2017-12-27T10:34:57.350Z,2.62
2017-12-27T10:35:57.256Z,3.36
2017-12-27T10:36:57.233Z,3.00
2017-12-27T10:37:57.269Z,3.49
2017-12-27T10:38:57.856Z,2.56
2017-12-27T10:39:57.654Z,2.10
2017-12-27T10:40:57.358Z,2.42
2017-12-27T10:41:57.195Z,2.75
2017-12-27T10:42:57.213Z,2.84
2017-12-27T10:43:57.183Z,1.93
2017-12-27T10:44:57.173Z,2.33
2017-12-27T10:45:57.158Z,2.06
2017-12-27T10:46:57.879Z,2.42
2017-12-27T10:47:57.154Z,2.26
2017-12-27T10:48:57.146Z,2.42
2017-12-27T10:49:57.148Z,1.94
2017-12-27T10:50:57.138Z,2.28
2017-12-27T10:51:57.144Z,2.31
2017-12-27T10:52:57.266Z,2.36
2017-12-27T10:53:57.149Z,3.03
2017-12-27T10:54:57.172Z,3.89
2017-12-27T10:55:57.106Z,3.11
2017-12-27T10:56:57.179Z,2.90
2017-12-27T10:57:57.097Z,2.50
2017-12-27T10:58:57.106Z,2.82
2017-12-27T10:59:57.119Z,1.99
2017-12-27T11:00:57.111Z,2.54
2017-12-27T11:01:57.158Z,2.94
2017-12-27T11:02:57.068Z,2.22
2017-12-27T11:03:57.033Z,1.98
2017-12-27T11:04:57.040Z,2.29
2017-12-27T11:05:57.022Z,2.31
2017-12-27T11:06:57.012Z,2.80
2017-12-27T11:07:57.043Z,3.32
2017-12-27T11:08:57.000Z,2.37
2017-12-27T11:09:56.995Z,2.78
2017-12-27T11:10:59.819Z,2.55
2017-12-27T11:11:56.976Z,2.18
2017-12-27T11:12:56.990Z,2.17
2017-12-27T11:13:56.995Z,2.28
2017-12-27T11:14:56.993Z,3.67
2017-12-27T11:15:56.990Z,3.03
2017-12-27T11:16:56.966Z,2.18
2017-12-27T11:17:56.965Z,2.53
2017-12-27T11:18:56.935Z,2.51
2017-12-27T11:19:56.926Z,2.70
2017-12-27T11:20:56.942Z,3.55
2017-12-27T11:21:56.928Z,2.56
2017-12-27T11:22:56.933Z,2.03
2017-12-27T11:23:56.912Z,2.09
2017-12-27T11:24:57.831Z,2.14
2017-12-27T11:25:56.891Z,2.53
2017-12-27T11:26:56.896Z,2.30
2017-12-27T11:27:56.891Z,2.72
2017-12-27T11:28:56.872Z,2.41
2017-12-27T11:29:56.862Z,2.14
2017-12-27T11:30:56.854Z,2.42
2017-12-27T11:31:56.864Z,2.18
2017-12-27T11:32:56.862Z,2.45
2017-12-27T11:33:59.856Z,2.19
2017-12-27T11:34:56.833Z,2.18
2017-12-27T11:35:56.818Z,2.25
2017-12-27T11:36:56.810Z,2.52
2017-12-27T11:37:56.805Z,2.58
2017-12-27T11:38:57.325Z,2.90
2017-12-27T11:39:56.803Z,2.39
2017-12-27T11:40:56.775Z,2.07
2017-12-27T11:41:56.798Z,1.74
2017-12-27T11:42:56.810Z,2.11
2017-12-27T11:43:56.762Z,2.58
2017-12-27T11:44:56.812Z,2.40
2017-12-27T11:45:56.763Z,2.08
2017-12-27T11:46:56.755Z,2.11
2017-12-27T11:47:56.741Z,2.05
2017-12-27T11:48:56.747Z,1.56
2017-12-27T11:49:56.746Z,2.04
2017-12-27T11:50:56.761Z,2.30
2017-12-27T11:51:56.747Z,3.62
2017-12-27T11:52:56.723Z,2.71
2017-12-27T11:53:56.704Z,2.06
2017-12-27T11:54:56.752Z,3.05
2017-12-27T11:55:56.722Z,1.90
2017-12-27T11:56:56.701Z,2.93
2017-12-27T11:57:56.695Z,2.94
2017-12-27T11:58:56.680Z,2.04
2017-12-27T11:59:56.702Z,2.66
2017-12-27T12:00:57.346Z,2.84
2017-12-27T12:01:56.673Z,1.95
2017-12-27T12:02:56.668Z,1.90
2017-12-27T12:03:56.674Z,1.90
2017-12-27T12:04:56.647Z,2.16
2017-12-27T12:05:56.616Z,2.18
2017-12-27T12:06:56.724Z,2.42
2017-12-27T12:07:56.645Z,2.49
2017-12-27T12:08:56.613Z,2.71
2017-12-27T12:09:56.684Z,1.99
2017-12-27T12:10:56.604Z,2.43
2017-12-27T12:11:56.662Z,3.00
2017-12-27T12:12:56.608Z,2.38
2017-12-27T12:13:56.685Z,2.30
2017-12-27T12:14:56.746Z,3.36
2017-12-27T12:15:57.392Z,1.90
2017-12-27T12:16:56.588Z,1.76
2017-12-27T12:17:56.591Z,1.98
2017-12-27T12:18:56.569Z,2.42
2017-12-27T12:19:57.340Z,2.25
2017-12-27T12:20:56.562Z,2.44
2017-12-27T12:21:56.549Z,2.28
2017-12-27T12:22:56.543Z,2.52
2017-12-27T12:23:56.505Z,2.38
2017-12-27T12:24:56.494Z,2.33
2017-12-27T12:25:56.515Z,3.27
2017-12-27T12:26:56.520Z,2.38
2017-12-27T12:27:56.489Z,1.78
2017-12-27T12:28:56.525Z,1.94
2017-12-27T12:29:56.509Z,2.19
2017-12-27T12:30:56.461Z,2.54
2017-12-27T12:31:56.451Z,2.38
2017-12-27T12:32:56.438Z,2.18
2017-12-27T12:33:56.446Z,2.39
2017-12-27T12:34:56.537Z,2.48
2017-12-27T12:35:56.431Z,2.18
2017-12-27T12:36:56.443Z,2.96
2017-12-27T12:37:56.416Z,1.96
2017-12-27T12:38:56.425Z,2.24
2017-12-27T12:39:56.415Z,3.48
2017-12-27T12:40:56.402Z,3.10
2017-12-27T12:41:56.388Z,2.07
2017-12-27T12:42:56.913Z,2.61
2017-12-27T12:43:56.398Z,2.97
2017-12-27T12:44:59.378Z,2.39
2017-12-27T12:45:56.384Z,2.47
2017-12-27T12:46:56.384Z,3.00
2017-12-27T12:47:56.353Z,2.68
2017-12-27T12:48:56.831Z,2.56
2017-12-27T12:49:56.336Z,2.71
2017-12-27T12:50:56.336Z,3.00
2017-12-27T12:51:56.385Z,2.95
2017-12-27T12:52:56.323Z,2.64
2017-12-27T12:53:56.907Z,2.32
2017-12-27T12:54:56.331Z,2.18
2017-12-27T12:55:56.856Z,2.44
2017-12-27T12:56:56.310Z,3.52
2017-12-27T12:57:56.295Z,3.36
2017-12-27T12:58:56.295Z,2.12
2017-12-27T12:59:56.295Z,2.59
2017-12-27T13:00:56.297Z,2.92
2017-12-27T13:01:56.277Z,2.93
2017-12-27T13:02:56.261Z,3.68
2017-12-27T13:03:56.262Z,2.54
2017-12-27T13:04:56.250Z,4.04
2017-12-27T13:05:56.251Z,2.80
2017-12-27T13:06:56.863Z,2.85
2017-12-27T13:07:56.241Z,2.75
2017-12-27T13:08:56.228Z,2.19
2017-12-27T13:09:56.866Z,2.14
2017-12-27T13:10:56.211Z,2.16
2017-12-27T13:11:56.235Z,2.71
2017-12-27T13:12:56.214Z,4.71
2017-12-27T13:13:56.187Z,5.56
2017-12-27T13:14:56.196Z,3.82
2017-12-27T13:15:56.196Z,2.59
2017-12-27T13:16:57.428Z,2.98
2017-12-27T13:17:56.168Z,3.21
2017-12-27T13:18:56.158Z,4.57
2017-12-27T13:19:56.153Z,3.55
2017-12-27T13:20:56.160Z,3.06
2017-12-27T13:21:56.149Z,2.68
2017-12-27T13:22:56.136Z,3.70